Terminal Aerodrome Forecast
Issued by NWS Melbourne, FL

Current Version | Previous Version | Text Only | Print | Product List | Glossary On
Versions: 1 2 3 4 5 6 7 8 9 10 11 12 13 14 15 16 17 18 19 20 21 22 23 24 25 26 27
000
FTUS42 KMLB 250540
TAFMCO
TAF
KMCO 250540Z 2506/2606 VRB03KT P6SM FEW025 SCT060 BKN100
     FM251400 18007KT P6SM SCT030 SCT080 SCT250
     FM252200 14008KT P6SM VCTS SCT040CB BKN060 BKN100
     FM260200 VRB04KT P6SM VCSH SCT025 BKN040 OVC060=

USA.gov is the U.S. government's official web portal to all federal, state and local government web resources and services.